Time;durP1;ratioP1;P1;durP2;ratioP2;P2;SDS_P1;SDS_P2;PMS_P1;PMS_P2;Temp;Humidity;BMP_temperature;BMP_pressure;BME280_temperature;BME280_humidity;BME280_pressure;Samples;Min_cycle;Max_cycle;Signal;HPM_P1;HPM_P2
2023/03/23 00:01:31;;;;;;;1.80;1.33;;;15.00;95.80;;;;;;5029491;28;20316;-81
2023/03/23 00:03:57;;;;;;;3.83;2.50;;;15.00;95.80;;;;;;5026251;28;20531;-82
2023/03/23 00:06:25;;;;;;;2.70;1.50;;;14.80;96.20;;;;;;5028641;28;20446;-84
2023/03/23 00:08:56;;;;;;;1.70;1.60;;;14.90;96.50;;;;;;5013902;28;20453;-82
2023/03/23 00:11:30;;;;;;;2.10;1.70;;;15.00;96.30;;;;;;5007401;28;20473;-83
2023/03/23 00:14:00;;;;;;;1.50;1.40;;;15.00;96.20;;;;;;5025947;28;20533;-84
2023/03/23 00:16:31;;;;;;;2.93;1.63;;;15.00;96.30;;;;;;5033221;28;20536;-83
2023/03/23 00:19:00;;;;;;;1.50;1.40;;;15.00;96.10;;;;;;5031177;28;20456;-81
2023/03/23 00:21:33;;;;;;;1.83;1.30;;;15.00;96.30;;;;;;5027384;28;20484;-82
2023/03/23 00:24:04;;;;;;;1.30;1.20;;;15.00;96.20;;;;;;5034238;28;20993;-83
2023/03/23 00:26:33;;;;;;;1.83;1.40;;;15.00;96.10;;;;;;5026796;28;20560;-85
2023/03/23 00:29:03;;;;;;;2.00;1.60;;;15.00;96.20;;;;;;5011901;28;20932;-84
2023/03/23 00:31:32;;;;;;;1.73;1.50;;;14.90;96.20;;;;;;5030981;28;20599;-84
2023/03/23 00:34:03;;;;;;;1.63;1.30;;;14.80;96.50;;;;;;5014744;28;20451;-83
2023/03/23 00:36:31;;;;;;;2.23;1.20;;;14.80;96.60;;;;;;5030155;28;20543;-84
2023/03/23 00:39:01;;;;;;;1.73;1.10;;;14.90;96.50;;;;;;5014130;28;20860;-83
2023/03/23 00:41:27;;;;;;;2.20;1.13;;;15.00;96.30;;;;;;5031656;28;20527;-83
2023/03/23 00:44:00;;;;;;;2.23;1.23;;;15.00;96.40;;;;;;5050200;28;21494;-83
2023/03/23 00:46:27;;;;;;;1.27;1.17;;;15.00;96.40;;;;;;5036248;28;20464;-84
2023/03/23 00:48:54;;;;;;;4.17;2.00;;;15.00;96.20;;;;;;5019971;28;21399;-83
2023/03/23 00:51:20;;;;;;;1.43;1.33;;;14.90;96.30;;;;;;5022174;28;21043;-82
2023/03/23 00:53:47;;;;;;;1.33;1.23;;;14.80;96.60;;;;;;5020884;28;20452;-83
2023/03/23 00:56:13;;;;;;;2.30;1.40;;;14.90;96.60;;;;;;5041758;28;20503;-84
2023/03/23 00:58:39;;;;;;;1.30;1.20;;;14.90;96.30;;;;;;5038934;28;20481;-83
2023/03/23 01:01:05;;;;;;;1.50;1.40;;;14.80;96.30;;;;;;5022940;28;20470;-82
2023/03/23 01:03:30;;;;;;;1.60;1.50;;;14.80;96.60;;;;;;5025243;28;20453;-84
2023/03/23 01:05:56;;;;;;;1.40;1.20;;;14.90;96.60;;;;;;5045079;28;20284;-83
2023/03/23 01:08:23;;;;;;;1.50;1.40;;;14.90;96.80;;;;;;5038685;28;20289;-83
2023/03/23 01:10:50;;;;;;;1.80;1.50;;;14.90;96.80;;;;;;5059415;28;20451;-84
2023/03/23 01:13:17;;;;;;;1.47;1.37;;;14.80;97.10;;;;;;5064097;28;20445;-83
2023/03/23 01:15:43;;;;;;;1.30;1.20;;;14.80;97.20;;;;;;5057190;28;20452;-82
2023/03/23 01:18:09;;;;;;;1.80;1.40;;;14.90;96.80;;;;;;5065177;28;20451;-83
2023/03/23 01:20:36;;;;;;;1.57;1.47;;;14.90;96.70;;;;;;5062119;28;20242;-82
2023/03/23 01:23:03;;;;;;;1.83;1.73;;;14.90;96.70;;;;;;5061350;28;20435;-82
2023/03/23 01:25:31;;;;;;;2.23;1.53;;;14.70;96.90;;;;;;5060723;28;20515;-84
2023/03/23 01:27:57;;;;;;;2.00;1.67;;;14.80;96.90;;;;;;5046871;28;20440;-84
2023/03/23 01:30:23;;;;;;;2.00;1.67;;;14.90;96.60;;;;;;5065713;28;20482;-85
2023/03/23 01:32:51;;;;;;;2.00;1.57;;;14.90;96.60;;;;;;5046614;28;20507;-84
2023/03/23 01:35:17;;;;;;;1.33;1.23;;;14.90;96.50;;;;;;5040161;28;20510;-83
2023/03/23 01:37:43;;;;;;;1.93;1.73;;;14.80;96.60;;;;;;5070281;28;20532;-84
2023/03/23 01:40:10;;;;;;;1.60;1.50;;;14.80;96.80;;;;;;5049504;28;20491;-84
2023/03/23 01:42:38;;;;;;;1.60;1.50;;;14.70;96.80;;;;;;5036262;28;20202;-84
2023/03/23 01:45:19;;;;;;;1.60;1.50;;;14.50;97.00;;;;;;5050625;28;20511;-83
2023/03/23 01:47:50;;;;;;;2.13;1.37;;;14.50;97.40;;;;;;5036809;28;20432;-83
2023/03/23 01:50:17;;;;;;;4.27;1.60;;;14.40;97.90;;;;;;5042565;28;20472;-83
2023/03/23 01:52:43;;;;;;;1.50;1.40;;;14.60;98.30;;;;;;5044458;28;20425;-82
2023/03/23 01:55:09;;;;;;;1.53;1.43;;;14.70;98.10;;;;;;5043252;28;20518;-83
2023/03/23 01:57:35;;;;;;;1.93;1.27;;;14.90;97.80;;;;;;5051386;28;20411;-83
2023/03/23 02:00:10;;;;;;;1.70;1.60;;;15.00;97.80;;;;;;5061393;28;20487;-86
2023/03/23 02:02:38;;;;;;;2.40;1.70;;;14.90;98.00;;;;;;5058759;28;20433;-83
2023/03/23 02:05:10;;;;;;;2.60;1.80;;;14.70;98.50;;;;;;5041419;28;20452;-83
2023/03/23 02:07:36;;;;;;;2.53;1.57;;;14.90;98.70;;;;;;5027667;28;20849;-85
2023/03/23 02:10:01;;;;;;;1.80;1.50;;;14.90;98.60;;;;;;5029445;28;20460;-83
2023/03/23 02:12:27;;;;;;;1.90;1.67;;;14.70;98.70;;;;;;5040747;28;21654;-83
2023/03/23 02:14:53;;;;;;;1.50;1.40;;;14.70;99.10;;;;;;5044667;28;20201;-82
2023/03/23 02:17:34;;;;;;;1.97;1.77;;;14.60;99.20;;;;;;5044009;28;20665;-84
2023/03/23 02:20:43;;;;;;;1.90;1.50;;;14.60;99.60;;;;;;5044856;28;20268;-82
2023/03/23 02:23:19;;;;;;;1.67;1.57;;;14.60;99.60;;;;;;5026577;28;20439;-81
2023/03/23 02:26:26;;;;;;;1.77;1.67;;;14.60;99.60;;;;;;5043716;28;20431;-82
2023/03/23 02:28:58;;;;;;;1.70;1.60;;;14.50;99.70;;;;;;4995537;28;21069;-83
2023/03/23 02:31:53;;;;;;;1.60;1.50;;;14.40;99.90;;;;;;5040983;28;20541;-84
2023/03/23 02:34:29;;;;;;;1.50;1.40;;;14.40;99.90;;;;;;5013873;28;20440;-83
2023/03/23 02:36:58;;;;;;;2.30;2.03;;;14.50;99.90;;;;;;5035996;28;20459;-83
2023/03/23 02:39:33;;;;;;;1.90;1.80;;;14.40;99.90;;;;;;5022822;28;20551;-85
2023/03/23 02:42:04;;;;;;;2.40;2.10;;;14.40;99.90;;;;;;5038251;28;20526;-83
2023/03/23 02:44:32;;;;;;;2.20;2.00;;;14.20;99.90;;;;;;5040444;28;20452;-84
2023/03/23 02:47:03;;;;;;;2.40;1.40;;;14.30;99.90;;;;;;5038100;28;21010;-84
2023/03/23 02:49:32;;;;;;;1.70;1.60;;;14.20;99.90;;;;;;5020759;28;20535;-83
2023/03/23 02:52:01;;;;;;;1.60;1.50;;;14.20;99.90;;;;;;5053315;28;21277;-83
2023/03/23 02:54:28;;;;;;;1.60;1.50;;;14.20;99.90;;;;;;5035247;28;20461;-83
2023/03/23 02:56:55;;;;;;;2.13;1.50;;;14.20;99.90;;;;;;5038228;28;20441;-83
2023/03/23 02:59:21;;;;;;;1.50;1.40;;;14.20;99.90;;;;;;5020146;28;20475;-86
2023/03/23 03:01:59;;;;;;;2.10;1.40;;;14.20;99.90;;;;;;5039867;28;20455;-84
2023/03/23 03:04:28;;;;;;;1.30;1.20;;;14.20;99.90;;;;;;5026614;28;20209;-84
2023/03/23 03:07:26;;;;;;;2.13;1.90;;;14.30;99.90;;;;;;5038354;28;20443;-83
2023/03/23 03:10:06;;;;;;;1.70;1.50;;;14.20;99.80;;;;;;5024080;28;21727;-83
2023/03/23 03:12:38;;;;;;;1.13;1.10;;;14.20;99.80;;;;;;5038033;28;20535;-84
2023/03/23 03:15:25;;;;;;;1.63;1.53;;;14.10;99.70;;;;;;5038421;28;20464;-84
2023/03/23 03:18:00;;;;;;;1.33;1.23;;;14.00;99.90;;;;;;5020976;28;20853;-83
2023/03/23 03:20:27;;;;;;;1.20;1.00;;;14.20;99.90;;;;;;5039466;28;20569;-84
2023/03/23 03:22:54;;;;;;;1.40;1.30;;;14.30;99.80;;;;;;5047456;28;20452;-84
2023/03/23 03:25:22;;;;;;;2.47;1.37;;;14.20;99.70;;;;;;5051366;28;20461;-84
2023/03/23 03:27:49;;;;;;;1.63;1.53;;;14.20;99.80;;;;;;5061289;28;20433;-86
2023/03/23 03:30:20;;;;;;;1.40;1.30;;;14.30;99.80;;;;;;5044805;28;20466;-84
2023/03/23 03:32:50;;;;;;;1.77;1.50;;;14.20;99.60;;;;;;5059771;28;20424;-84
2023/03/23 03:35:16;;;;;;;1.63;1.00;;;14.20;99.70;;;;;;5065639;28;20504;-84
2023/03/23 03:37:43;;;;;;;0.90;0.90;;;14.20;99.90;;;;;;5067627;28;20516;-84
2023/03/23 03:40:16;;;;;;;2.00;1.37;;;14.20;99.90;;;;;;5042120;28;20488;-83
2023/03/23 03:42:43;;;;;;;1.10;1.00;;;14.20;99.90;;;;;;5054833;28;20493;-85
2023/03/23 03:45:12;;;;;;;1.37;1.37;;;14.20;99.80;;;;;;5058515;28;20509;-84
2023/03/23 03:47:38;;;;;;;1.17;1.10;;;14.20;99.90;;;;;;5025169;28;20437;-82
2023/03/23 03:50:05;;;;;;;1.40;1.30;;;14.00;99.90;;;;;;5037889;28;20456;-84
2023/03/23 03:52:31;;;;;;;1.40;1.30;;;14.00;99.90;;;;;;5059565;28;20255;-83
2023/03/23 03:54:57;;;;;;;3.07;1.60;;;14.00;99.90;;;;;;5061895;28;20445;-84
2023/03/23 03:57:23;;;;;;;1.23;1.13;;;14.10;99.90;;;;;;5061557;28;20436;-82
2023/03/23 03:59:49;;;;;;;2.47;1.13;;;14.00;99.90;;;;;;5044699;28;20572;-84
2023/03/23 04:02:19;;;;;;;1.73;1.40;;;14.10;99.90;;;;;;5040090;28;20444;-81
2023/03/23 04:04:46;;;;;;;1.50;1.40;;;14.10;99.90;;;;;;5058208;28;20186;-86
2023/03/23 04:07:13;;;;;;;1.60;1.30;;;14.10;99.90;;;;;;5042420;28;20433;-85
2023/03/23 04:09:40;;;;;;;1.40;1.30;;;14.10;99.90;;;;;;5059383;28;20444;-84
2023/03/23 04:12:06;;;;;;;1.40;1.30;;;14.00;99.90;;;;;;5058172;28;20553;-82
2023/03/23 04:14:32;;;;;;;1.13;1.13;;;14.00;99.90;;;;;;5043660;28;20444;-84
2023/03/23 04:16:58;;;;;;;0.97;0.90;;;14.10;99.90;;;;;;5041621;28;20468;-82
2023/03/23 04:19:32;;;;;;;1.10;1.00;;;14.00;99.90;;;;;;5049968;28;20928;-82
2023/03/23 04:22:04;;;;;;;1.30;1.20;;;14.00;99.90;;;;;;5054789;28;20431;-82
2023/03/23 04:24:32;;;;;;;1.83;1.00;;;14.10;99.90;;;;;;5110538;22;20500;-82
2023/03/23 04:26:57;;;;;;;1.40;1.30;;;14.10;99.90;;;;;;5053346;28;21135;-84
2023/03/23 04:29:23;;;;;;;1.67;1.57;;;14.10;99.90;;;;;;5062435;28;20462;-82
2023/03/23 04:31:50;;;;;;;2.70;1.47;;;14.10;99.90;;;;;;5031992;28;20272;-84
2023/03/23 04:34:16;;;;;;;1.43;1.33;;;14.10;99.90;;;;;;5027180;28;20198;-85
2023/03/23 04:36:42;;;;;;;1.57;1.37;;;14.10;99.90;;;;;;5049032;28;21319;-85
2023/03/23 04:39:09;;;;;;;2.10;1.90;;;13.90;99.90;;;;;;5024778;28;20960;-84
2023/03/23 04:41:38;;;;;;;1.67;1.30;;;14.10;99.90;;;;;;5024159;28;20921;-83
2023/03/23 04:44:04;;;;;;;1.30;1.20;;;14.20;99.90;;;;;;5029195;28;20445;-85
2023/03/23 04:46:30;;;;;;;1.90;1.60;;;14.10;99.90;;;;;;5048974;28;20456;-83
2023/03/23 04:48:58;;;;;;;1.47;1.37;;;14.10;99.90;;;;;;5027778;28;20464;-83
2023/03/23 04:51:26;;;;;;;1.80;1.67;;;14.10;99.90;;;;;;5029006;28;20218;-82
2023/03/23 04:53:52;;;;;;;2.00;1.80;;;14.10;99.90;;;;;;5027277;28;21006;-83
2023/03/23 04:56:18;;;;;;;2.40;1.70;;;14.10;99.90;;;;;;5011257;28;20536;-83
2023/03/23 04:58:44;;;;;;;1.40;1.30;;;14.10;99.90;;;;;;5034911;28;20564;-84
2023/03/23 05:01:13;;;;;;;1.97;1.83;;;14.10;99.90;;;;;;5036585;28;20229;-84
2023/03/23 05:03:40;;;;;;;1.43;1.33;;;14.10;99.90;;;;;;5035729;28;20472;-82
2023/03/23 05:06:06;;;;;;;2.63;1.60;;;14.00;99.90;;;;;;5021964;28;20450;-81
2023/03/23 05:08:32;;;;;;;1.60;1.10;;;14.10;99.90;;;;;;5022442;28;20991;-83
2023/03/23 05:10:59;;;;;;;1.60;1.47;;;14.10;99.90;;;;;;5036072;28;20549;-85
2023/03/23 05:13:26;;;;;;;1.60;1.50;;;14.00;99.90;;;;;;5018493;28;20448;-83
2023/03/23 05:15:52;;;;;;;1.67;1.57;;;14.00;99.90;;;;;;5020283;28;20507;-83
2023/03/23 05:18:20;;;;;;;1.57;1.40;;;14.10;99.90;;;;;;5035900;28;20825;-83
2023/03/23 05:20:46;;;;;;;3.43;1.67;;;14.10;99.90;;;;;;5034558;28;20233;-83
2023/03/23 05:23:12;;;;;;;1.70;1.60;;;14.10;99.90;;;;;;5032868;28;20579;-84
2023/03/23 05:25:41;;;;;;;2.03;1.83;;;14.20;99.90;;;;;;5017234;28;20449;-82
2023/03/23 05:28:11;;;;;;;2.20;1.50;;;14.00;99.90;;;;;;5043745;28;20524;-83
2023/03/23 05:30:38;;;;;;;1.87;1.73;;;14.10;99.90;;;;;;5031307;28;20477;-84
2023/03/23 05:33:06;;;;;;;2.00;1.40;;;14.20;99.90;;;;;;5007046;28;20440;-83
2023/03/23 05:35:31;;;;;;;2.70;1.93;;;14.20;99.90;;;;;;5026180;28;20455;-85
2023/03/23 05:37:57;;;;;;;2.30;1.63;;;14.10;99.90;;;;;;5026038;28;20451;-84
2023/03/23 05:40:25;;;;;;;2.60;1.70;;;14.10;99.90;;;;;;5021886;28;20221;-85
2023/03/23 05:42:51;;;;;;;1.90;1.80;;;14.20;99.90;;;;;;5023749;28;20271;-84
2023/03/23 05:45:17;;;;;;;2.00;1.80;;;14.20;99.90;;;;;;5007162;28;20473;-84
2023/03/23 05:47:44;;;;;;;1.80;1.70;;;14.10;99.90;;;;;;5016433;28;20437;-86
2023/03/23 05:50:12;;;;;;;1.77;1.60;;;14.10;99.90;;;;;;5026843;28;21311;-83
2023/03/23 05:52:38;;;;;;;3.17;1.93;;;14.20;99.90;;;;;;5027883;28;20447;-83
2023/03/23 05:55:05;;;;;;;2.50;1.93;;;14.20;99.90;;;;;;5015069;28;21755;-84
2023/03/23 05:57:31;;;;;;;2.33;1.63;;;14.10;99.90;;;;;;5022045;28;20433;-83
2023/03/23 05:59:57;;;;;;;1.80;1.70;;;14.10;99.90;;;;;;5009065;28;20485;-84
2023/03/23 06:02:24;;;;;;;2.40;2.20;;;14.10;99.90;;;;;;5025968;28;20629;-85
2023/03/23 06:04:57;;;;;;;4.03;2.13;;;14.10;99.90;;;;;;5026415;28;20447;-82
2023/03/23 06:07:25;;;;;;;2.47;2.27;;;14.10;99.90;;;;;;5025687;28;21195;-82
2023/03/23 06:09:52;;;;;;;2.83;2.30;;;14.20;99.90;;;;;;5010541;28;20456;-82
2023/03/23 06:12:19;;;;;;;2.20;2.00;;;14.00;99.90;;;;;;5015185;28;21548;-83
2023/03/23 06:14:46;;;;;;;2.40;2.03;;;14.00;99.90;;;;;;5005221;28;20467;-81
2023/03/23 06:17:13;;;;;;;3.77;2.40;;;14.20;99.50;;;;;;5015986;28;20448;-81
2023/03/23 06:19:38;;;;;;;2.40;2.20;;;14.20;99.30;;;;;;4993430;28;20502;-82
2023/03/23 06:22:05;;;;;;;3.43;2.00;;;14.20;99.10;;;;;;5030120;28;20468;-84
2023/03/23 06:24:32;;;;;;;2.17;1.97;;;14.20;98.90;;;;;;5025005;28;20264;-82
2023/03/23 06:26:59;;;;;;;5.70;2.67;;;14.30;98.80;;;;;;5015328;28;20511;-87
2023/03/23 06:29:24;;;;;;;2.53;1.90;;;14.20;98.50;;;;;;5023460;28;20498;-85
2023/03/23 06:31:55;;;;;;;3.00;2.17;;;14.30;98.20;;;;;;5026726;28;21029;-83
2023/03/23 06:34:21;;;;;;;4.23;1.93;;;14.30;98.20;;;;;;5025759;28;20224;-83
2023/03/23 06:36:47;;;;;;;1.63;1.53;;;14.20;98.20;;;;;;5028261;28;21029;-82
2023/03/23 06:39:13;;;;;;;5.33;2.07;;;14.40;98.00;;;;;;5017000;28;20572;-84
2023/03/23 06:41:39;;;;;;;5.27;2.20;;;14.40;97.30;;;;;;5027383;28;20210;-85
2023/03/23 06:44:06;;;;;;;2.50;1.80;;;14.40;97.00;;;;;;5025320;28;20444;-84
2023/03/23 06:46:32;;;;;;;3.00;1.60;;;14.40;97.00;;;;;;5025000;28;20441;-85
2023/03/23 06:48:58;;;;;;;2.47;2.00;;;14.50;96.80;;;;;;5009078;28;20448;-85
2023/03/23 06:51:24;;;;;;;2.23;1.40;;;14.60;96.90;;;;;;5006423;28;20255;-84
2023/03/23 06:53:50;;;;;;;3.20;1.97;;;14.60;96.60;;;;;;5013473;28;20460;-85
2023/03/23 06:56:16;;;;;;;2.23;1.60;;;14.70;96.20;;;;;;5028060;28;20535;-84
2023/03/23 06:58:42;;;;;;;2.40;1.57;;;14.70;96.10;;;;;;5016284;28;20563;-85
2023/03/23 07:01:09;;;;;;;3.13;1.50;;;14.70;96.10;;;;;;5032102;28;20526;-84
2023/03/23 07:03:36;;;;;;;3.93;1.50;;;14.80;96.00;;;;;;5023822;28;20445;-84
2023/03/23 07:06:03;;;;;;;3.07;2.10;;;14.80;95.80;;;;;;5025500;28;22234;-84
2023/03/23 07:08:28;;;;;;;2.90;1.40;;;14.70;95.90;;;;;;5024530;28;22118;-84
2023/03/23 07:10:56;;;;;;;3.20;1.60;;;14.80;95.80;;;;;;5024520;28;20461;-84
2023/03/23 07:13:22;;;;;;;3.50;1.60;;;14.70;95.80;;;;;;5025117;28;20232;-82
2023/03/23 07:15:48;;;;;;;2.80;1.57;;;14.70;95.80;;;;;;5029203;28;20432;-82
2023/03/23 07:18:14;;;;;;;1.80;1.60;;;14.70;95.80;;;;;;5026045;28;20457;-82
2023/03/23 07:20:41;;;;;;;2.57;1.60;;;14.70;95.70;;;;;;5021482;28;20480;-82
2023/03/23 07:23:07;;;;;;;1.37;1.10;;;14.60;95.80;;;;;;5022200;28;20959;-83
2023/03/23 07:25:35;;;;;;;1.47;1.00;;;14.70;96.00;;;;;;5020177;28;20267;-84
2023/03/23 07:28:02;;;;;;;5.87;1.60;;;14.80;95.70;;;;;;5006128;28;21270;-83
2023/03/23 07:30:29;;;;;;;2.00;1.50;;;14.70;95.80;;;;;;5005177;28;20457;-81
2023/03/23 07:32:56;;;;;;;4.30;1.40;;;14.60;95.80;;;;;;5021235;28;20870;-84
2023/03/23 07:35:22;;;;;;;4.87;1.50;;;14.70;95.80;;;;;;5021866;28;20444;-84
2023/03/23 07:37:48;;;;;;;3.07;1.50;;;14.90;95.30;;;;;;5021147;28;20503;-84
2023/03/23 07:40:15;;;;;;;1.50;1.40;;;14.90;95.00;;;;;;5006588;28;21429;-85
2023/03/23 07:42:43;;;;;;;3.17;1.23;;;14.90;94.80;;;;;;5023536;28;20459;-83
2023/03/23 07:45:11;;;;;;;2.43;1.60;;;14.90;94.80;;;;;;5005957;28;20531;-83
2023/03/23 07:47:37;;;;;;;1.43;1.10;;;14.90;95.20;;;;;;5005704;28;20452;-83
2023/03/23 07:50:03;;;;;;;2.90;1.67;;;15.00;94.60;;;;;;5022494;28;20453;-85
2023/03/23 07:52:30;;;;;;;1.10;1.00;;;15.00;94.60;;;;;;5020122;28;20507;-84
2023/03/23 07:54:55;;;;;;;1.67;1.30;;;15.00;94.50;;;;;;5003966;28;20444;-84
2023/03/23 07:57:22;;;;;;;3.70;1.40;;;15.10;94.30;;;;;;5021851;28;20447;-84
2023/03/23 07:59:47;;;;;;;5.30;1.40;;;15.00;94.20;;;;;;5020019;28;20202;-85
2023/03/23 08:02:14;;;;;;;2.73;1.47;;;15.00;94.40;;;;;;5023487;28;20460;-83
2023/03/23 08:04:40;;;;;;;4.00;1.60;;;15.10;94.20;;;;;;5030934;28;20495;-83
2023/03/23 08:07:06;;;;;;;2.40;1.30;;;15.20;93.80;;;;;;5020593;28;20452;-83
2023/03/23 08:09:31;;;;;;;1.80;1.23;;;15.20;93.90;;;;;;5024989;28;20198;-84
2023/03/23 08:11:57;;;;;;;2.57;1.37;;;15.00;93.90;;;;;;5006082;28;20203;-84
2023/03/23 08:14:27;;;;;;;1.80;1.30;;;15.00;94.20;;;;;;5004172;28;20213;-83
2023/03/23 08:16:55;;;;;;;2.30;1.00;;;15.20;93.80;;;;;;5022924;28;20234;-85
2023/03/23 08:19:20;;;;;;;2.67;1.33;;;15.30;93.50;;;;;;5005876;28;21078;-84
2023/03/23 08:21:46;;;;;;;1.80;1.20;;;15.30;93.40;;;;;;5021592;28;20480;-85
2023/03/23 08:24:13;;;;;;;1.50;1.20;;;15.30;93.20;;;;;;5021794;28;20333;-84
2023/03/23 08:26:39;;;;;;;1.53;1.17;;;15.20;93.40;;;;;;5023599;28;20272;-83
2023/03/23 08:29:05;;;;;;;1.60;1.30;;;15.40;93.00;;;;;;5025242;28;20457;-84
2023/03/23 08:31:34;;;;;;;6.20;1.70;;;15.40;93.00;;;;;;5030105;28;20514;-84
2023/03/23 08:34:00;;;;;;;1.70;1.20;;;15.50;92.90;;;;;;5022034;28;20440;-83
2023/03/23 08:36:27;;;;;;;2.93;1.40;;;15.50;93.10;;;;;;5006001;28;20473;-84
2023/03/23 08:38:53;;;;;;;2.30;1.20;;;15.60;92.70;;;;;;5006791;28;20917;-83
2023/03/23 08:41:19;;;;;;;2.63;1.07;;;15.60;92.40;;;;;;5025943;28;20568;-83
2023/03/23 08:43:44;;;;;;;2.10;1.20;;;15.50;92.30;;;;;;5040953;28;20611;-86
2023/03/23 08:46:11;;;;;;;1.00;0.90;;;15.30;92.50;;;;;;5044725;28;20210;-83
2023/03/23 08:48:38;;;;;;;4.90;1.73;;;15.50;92.40;;;;;;5025480;28;20225;-86
2023/03/23 08:51:05;;;;;;;2.07;1.63;;;15.40;92.60;;;;;;5033673;28;20471;-83
2023/03/23 08:53:31;;;;;;;3.33;1.40;;;15.40;92.80;;;;;;5033409;28;20483;-83
2023/03/23 08:56:03;;;;;;;1.47;1.37;;;15.70;92.10;;;;;;5018878;28;20798;-83
2023/03/23 08:58:29;;;;;;;1.13;0.90;;;15.80;92.10;;;;;;5015139;28;20446;-84
2023/03/23 09:00:54;;;;;;;2.13;1.60;;;15.90;91.90;;;;;;5025708;28;20457;-84
2023/03/23 09:03:20;;;;;;;1.80;1.30;;;15.70;91.80;;;;;;5025212;28;20471;-83
2023/03/23 09:05:45;;;;;;;1.33;1.20;;;15.60;92.10;;;;;;5006883;28;20195;-82
2023/03/23 09:08:12;;;;;;;3.07;1.50;;;15.80;91.50;;;;;;5029690;28;20213;-84
2023/03/23 09:10:38;;;;;;;3.53;2.00;;;15.70;91.60;;;;;;5017429;28;20222;-84
2023/03/23 09:13:04;;;;;;;3.77;1.83;;;15.60;91.50;;;;;;5023816;28;20488;-85
2023/03/23 09:15:31;;;;;;;2.43;1.53;;;15.60;92.10;;;;;;5036154;28;20507;-84
2023/03/23 09:17:57;;;;;;;4.23;1.40;;;15.70;92.10;;;;;;5017213;28;20465;-84
2023/03/23 09:20:25;;;;;;;3.33;1.63;;;15.90;91.50;;;;;;5014180;28;20596;-85
2023/03/23 09:22:53;;;;;;;2.43;1.43;;;16.00;91.30;;;;;;5027336;28;21047;-85
2023/03/23 09:25:22;;;;;;;6.30;1.67;;;15.80;91.30;;;;;;5018276;28;20464;-84
2023/03/23 09:27:56;;;;;;;8.73;1.53;;;16.00;91.00;;;;;;5031562;28;20452;-83
2023/03/23 09:30:30;;;;;;;2.20;1.70;;;15.80;91.20;;;;;;5032567;28;20456;-84
2023/03/23 09:32:56;;;;;;;4.40;1.40;;;16.20;90.80;;;;;;5036993;28;20467;-83
2023/03/23 09:35:23;;;;;;;5.23;1.50;;;15.90;90.80;;;;;;5023425;28;20515;-83
2023/03/23 09:37:50;;;;;;;2.73;1.30;;;16.00;91.40;;;;;;5042427;28;20437;-83
2023/03/23 09:40:22;;;;;;;1.40;1.27;;;16.40;90.70;;;;;;5035259;28;20637;-85
2023/03/23 09:43:06;;;;;;;4.97;2.00;;;16.60;90.00;;;;;;5039068;28;20939;-84
2023/03/23 09:45:37;;;;;;;5.13;1.27;;;16.40;90.00;;;;;;5017823;28;20523;-83
2023/03/23 09:48:22;;;;;;;2.30;1.10;;;16.00;90.10;;;;;;5036999;28;20502;-83
2023/03/23 09:50:52;;;;;;;4.83;1.50;;;16.20;89.50;;;;;;5027361;28;21126;-83
2023/03/23 09:53:26;;;;;;;2.30;1.50;;;16.20;88.80;;;;;;5035902;28;20487;-83
2023/03/23 09:55:52;;;;;;;1.63;1.10;;;15.80;88.30;;;;;;5035096;28;21087;-84
2023/03/23 09:58:35;;;;;;;1.87;1.17;;;15.90;87.90;;;;;;5036070;28;20460;-83
2023/03/23 10:01:03;;;;;;;5.87;1.93;;;15.80;88.20;;;;;;5022346;28;20582;-85
2023/03/23 10:03:39;;;;;;;4.93;2.50;;;15.70;88.70;;;;;;5036271;28;20504;-84
2023/03/23 10:06:07;;;;;;;2.20;1.53;;;16.10;87.90;;;;;;5031981;28;20486;-83
2023/03/23 10:08:34;;;;;;;1.63;1.00;;;16.40;86.70;;;;;;5034425;28;20440;-84
2023/03/23 10:11:21;;;;;;;2.97;1.60;;;16.40;86.30;;;;;;5034306;28;20476;-84
2023/03/23 10:14:08;;;;;;;1.53;1.13;;;16.30;86.90;;;;;;5017043;28;20463;-84
2023/03/23 10:16:56;;;;;;;2.30;1.47;;;16.10;88.30;;;;;;5032359;28;20451;-83
2023/03/23 10:19:26;;;;;;;2.47;1.30;;;16.50;88.90;;;;;;5018118;28;20480;-84
2023/03/23 10:21:58;;;;;;;1.67;1.17;;;16.80;88.50;;;;;;5037104;28;20506;-84
2023/03/23 10:24:49;;;;;;;2.20;1.10;;;16.90;88.00;;;;;;5041861;28;20444;-84
2023/03/23 10:27:37;;;;;;;7.00;1.70;;;16.70;89.00;;;;;;5042545;28;20432;-83
2023/03/23 10:30:15;;;;;;;1.60;1.10;;;16.70;89.60;;;;;;5043077;28;20471;-84
2023/03/23 10:32:53;;;;;;;2.10;1.07;;;16.60;90.10;;;;;;5029641;28;20425;-84
2023/03/23 10:35:31;;;;;;;2.20;2.00;;;16.30;90.60;;;;;;5046052;28;20463;-84
2023/03/23 10:38:01;;;;;;;1.60;0.90;;;16.20;91.30;;;;;;5041525;28;20420;-84
2023/03/23 10:40:29;;;;;;;3.00;1.10;;;16.20;91.60;;;;;;5065396;28;20509;-85
2023/03/23 10:42:57;;;;;;;0.97;0.83;;;16.00;91.90;;;;;;5049810;28;20437;-84
2023/03/23 10:45:32;;;;;;;1.33;1.20;;;16.00;92.20;;;;;;5081798;28;20514;-82
2023/03/23 10:48:13;;;;;;;0.60;0.60;;;15.90;92.70;;;;;;5067290;28;20454;-84
2023/03/23 10:50:39;;;;;;;0.97;0.80;;;15.70;93.20;;;;;;5062417;28;20468;-84
2023/03/23 10:53:21;;;;;;;1.07;1.03;;;16.00;93.20;;;;;;5042732;28;20432;-84
2023/03/23 10:55:46;;;;;;;2.10;1.00;;;16.00;93.20;;;;;;5023761;28;20429;-83
2023/03/23 10:58:34;;;;;;;1.33;0.77;;;15.90;93.40;;;;;;5030307;28;20437;-84
2023/03/23 11:01:03;;;;;;;1.70;0.87;;;15.90;93.60;;;;;;5032139;28;20210;-84
2023/03/23 11:03:43;;;;;;;1.37;0.90;;;15.90;94.00;;;;;;5029004;28;20465;-84
2023/03/23 11:06:12;;;;;;;1.10;0.80;;;16.20;93.50;;;;;;5030593;28;20546;-84
2023/03/23 11:08:53;;;;;;;0.70;0.67;;;16.30;93.30;;;;;;5034605;28;20718;-83
2023/03/23 11:11:28;;;;;;;0.80;0.70;;;16.30;93.30;;;;;;5033121;28;20460;-84
2023/03/23 11:13:59;;;;;;;1.30;1.10;;;16.40;93.10;;;;;;5032300;28;20880;-84
2023/03/23 11:16:28;;;;;;;1.87;1.77;;;16.50;92.60;;;;;;5038713;28;20432;-83
2023/03/23 11:18:54;;;;;;;1.10;0.80;;;16.50;92.60;;;;;;5040696;28;20480;-85
2023/03/23 11:21:23;;;;;;;1.93;1.13;;;16.60;92.60;;;;;;5025205;28;20506;-84
2023/03/23 11:23:57;;;;;;;0.90;0.70;;;16.70;92.40;;;;;;5024944;28;20471;-82
2023/03/23 11:26:31;;;;;;;1.30;0.90;;;16.60;92.30;;;;;;5030085;28;20464;-83
2023/03/23 11:29:02;;;;;;;1.60;0.73;;;16.60;92.10;;;;;;5025056;28;20672;-84
2023/03/23 11:31:32;;;;;;;1.83;1.03;;;16.50;92.40;;;;;;5031899;28;20456;-84
2023/03/23 11:34:04;;;;;;;3.33;1.43;;;16.40;92.40;;;;;;5011719;28;20465;-83
2023/03/23 11:36:43;;;;;;;1.83;1.00;;;16.40;92.80;;;;;;5037548;28;20444;-85
2023/03/23 11:39:20;;;;;;;1.40;1.03;;;16.30;93.00;;;;;;5029165;28;20480;-83
2023/03/23 11:41:46;;;;;;;1.20;0.77;;;16.50;92.70;;;;;;5039345;28;20468;-81
2023/03/23 11:44:13;;;;;;;0.97;0.70;;;16.40;92.80;;;;;;5036715;28;20458;-82
2023/03/23 11:47:01;;;;;;;2.50;0.80;;;16.60;92.20;;;;;;5040728;28;20703;-83
2023/03/23 11:49:33;;;;;;;1.73;1.23;;;16.50;92.10;;;;;;5042856;28;20495;-84
2023/03/23 11:52:13;;;;;;;1.20;0.70;;;16.20;92.90;;;;;;5028628;28;21049;-82
2023/03/23 11:54:47;;;;;;;1.63;1.30;;;16.10;93.30;;;;;;5031451;28;20443;-81
2023/03/23 11:57:13;;;;;;;4.60;0.63;;;16.10;93.60;;;;;;5044300;28;20413;-84
2023/03/23 11:59:40;;;;;;;1.00;0.63;;;16.00;93.80;;;;;;5045088;28;20519;-83
2023/03/23 12:02:24;;;;;;;0.70;0.67;;;16.30;93.60;;;;;;5028534;28;20445;-82
2023/03/23 12:05:16;;;;;;;0.70;0.60;;;16.30;93.60;;;;;;5047936;28;20438;-84
2023/03/23 12:07:47;;;;;;;1.40;0.63;;;16.20;93.80;;;;;;5029565;28;20433;-82
2023/03/23 12:10:36;;;;;;;1.00;0.80;;;16.60;93.00;;;;;;5044213;28;20471;-83
2023/03/23 12:13:29;;;;;;;4.37;0.87;;;16.60;92.60;;;;;;5044476;28;21058;-83
2023/03/23 12:16:33;;;;;;;0.80;0.80;;;16.30;92.90;;;;;;5022549;28;20467;-87
2023/03/23 12:19:18;;;;;;;1.20;0.73;;;16.30;93.20;;;;;;5021045;28;20535;-84
2023/03/23 12:21:52;;;;;;;0.90;0.70;;;16.40;93.10;;;;;;5040001;28;20452;-84
2023/03/23 12:24:42;;;;;;;2.07;1.00;;;16.60;92.90;;;;;;5032776;28;20438;-84
2023/03/23 12:27:10;;;;;;;1.23;1.10;;;16.80;92.80;;;;;;5035550;28;20544;-85
2023/03/23 12:30:05;;;;;;;1.40;1.17;;;17.00;92.60;;;;;;5023466;28;20462;-82
2023/03/23 12:33:08;;;;;;;4.53;2.10;;;16.90;92.60;;;;;;5040424;28;20466;-82
2023/03/23 12:35:44;;;;;;;1.90;0.80;;;17.00;92.80;;;;;;5029860;28;20462;-83
2023/03/23 12:38:35;;;;;;;0.83;0.80;;;17.60;91.40;;;;;;5036735;28;20471;-83
2023/03/23 12:41:09;;;;;;;3.83;1.63;;;17.50;90.80;;;;;;5012742;28;20487;-83
2023/03/23 12:43:52;;;;;;;6.80;2.00;;;17.10;90.90;;;;;;5020547;28;20473;-84
2023/03/23 12:46:21;;;;;;;2.70;1.33;;;16.80;91.40;;;;;;5032087;28;20856;-84
2023/03/23 12:48:53;;;;;;;3.50;1.13;;;16.50;91.70;;;;;;5021600;28;20455;-84
2023/03/23 12:51:37;;;;;;;1.90;0.80;;;16.40;91.90;;;;;;5022465;28;20846;-82
2023/03/23 12:54:11;;;;;;;3.50;1.33;;;16.50;91.90;;;;;;5020199;28;20539;-83
2023/03/23 12:56:50;;;;;;;0.80;0.80;;;16.60;91.60;;;;;;5034048;28;20467;-83
2023/03/23 12:59:20;;;;;;;1.50;1.17;;;16.80;91.40;;;;;;5019666;28;20527;-85
2023/03/23 13:01:51;;;;;;;4.73;1.37;;;17.00;91.00;;;;;;5031775;28;20491;-85
2023/03/23 13:04:32;;;;;;;1.27;1.03;;;17.00;90.80;;;;;;5030981;28;20459;-84